createdAt,value
2017-05-14T00:01:31.864Z,82.50
2017-05-14T00:03:58.904Z,82.60
2017-05-14T00:06:25.905Z,81.20
2017-05-14T00:08:52.928Z,80.30
2017-05-14T00:11:21.061Z,80.20
2017-05-14T00:13:48.041Z,80.30
2017-05-14T00:16:15.036Z,80.20
2017-05-14T00:18:42.440Z,79.50
2017-05-14T00:21:09.473Z,79.40
2017-05-14T00:23:36.468Z,80.10
2017-05-14T00:26:03.865Z,79.50
2017-05-14T00:28:30.864Z,80.10
2017-05-14T00:30:57.905Z,80.10
2017-05-14T00:33:25.335Z,81.10
2017-05-14T00:35:52.328Z,82.50
2017-05-14T00:38:19.330Z,82.20
2017-05-14T00:40:46.661Z,82.50
2017-05-14T00:43:13.657Z,82.80
2017-05-14T00:45:41.407Z,82.70
2017-05-14T00:48:09.529Z,81.90
2017-05-14T00:50:36.531Z,81.70
2017-05-14T00:53:04.382Z,80.90
2017-05-14T00:55:31.448Z,80.90
2017-05-14T00:57:58.429Z,81.00
2017-05-14T01:00:25.831Z,80.60
2017-05-14T01:02:52.836Z,79.70
2017-05-14T01:05:19.844Z,81.70
2017-05-14T01:07:47.633Z,82.40
2017-05-14T01:10:14.655Z,83.70
2017-05-14T01:12:42.816Z,81.80
2017-05-14T01:15:09.865Z,81.20
2017-05-14T01:17:36.852Z,81.90
2017-05-14T01:20:03.892Z,82.30
2017-05-14T01:22:31.719Z,83.50
2017-05-14T01:24:59.060Z,84.00
2017-05-14T01:27:26.067Z,83.90
2017-05-14T01:29:53.085Z,83.00
2017-05-14T01:32:21.248Z,82.00
2017-05-14T01:34:49.236Z,82.20
2017-05-14T01:37:16.331Z,83.30
2017-05-14T01:39:43.373Z,83.30
2017-05-14T01:42:11.229Z,81.90
2017-05-14T01:44:38.736Z,80.80
2017-05-14T01:47:05.831Z,80.30
2017-05-14T01:49:32.899Z,80.40
2017-05-14T01:52:00.033Z,79.00
2017-05-14T01:54:27.042Z,78.70
2017-05-14T01:56:54.481Z,78.50
2017-05-14T01:59:21.504Z,78.30
2017-05-14T02:01:48.518Z,78.20
2017-05-14T02:04:15.608Z,79.60
2017-05-14T02:06:42.579Z,80.40
2017-05-14T02:09:10.013Z,79.90
2017-05-14T02:11:37.039Z,78.10
2017-05-14T02:14:04.033Z,77.20
2017-05-14T02:16:31.073Z,77.40
2017-05-14T02:18:58.106Z,77.70
2017-05-14T02:21:25.163Z,77.60
2017-05-14T02:23:52.629Z,78.50
2017-05-14T02:26:19.661Z,78.20
2017-05-14T02:28:46.692Z,78.30
2017-05-14T02:31:13.750Z,78.90
2017-05-14T02:33:40.777Z,80.00
2017-05-14T02:36:08.161Z,80.80
2017-05-14T02:38:35.188Z,81.20
2017-05-14T02:41:02.181Z,81.10
2017-05-14T02:43:29.176Z,80.70
2017-05-14T02:45:56.173Z,81.40
2017-05-14T02:48:23.632Z,80.90
2017-05-14T02:50:51.385Z,81.10
2017-05-14T02:53:18.399Z,80.90
2017-05-14T02:55:45.413Z,80.70
2017-05-14T02:58:12.396Z,81.30
2017-05-14T03:00:39.899Z,80.90
2017-05-14T03:03:06.944Z,80.80
2017-05-14T03:05:33.980Z,81.50
2017-05-14T03:08:01.007Z,81.20
2017-05-14T03:10:28.012Z,81.40
2017-05-14T03:12:55.420Z,81.30
2017-05-14T03:15:22.425Z,81.80
2017-05-14T03:17:49.485Z,82.00
2017-05-14T03:20:16.545Z,82.20
2017-05-14T03:22:43.603Z,82.30
2017-05-14T03:25:10.999Z,82.10
2017-05-14T03:27:38.776Z,81.50
2017-05-14T03:30:05.812Z,81.50
2017-05-14T03:32:33.582Z,80.80
2017-05-14T03:35:01.353Z,81.20
2017-05-14T03:37:29.476Z,80.30
2017-05-14T03:39:56.543Z,81.20
2017-05-14T03:42:24.327Z,81.10
2017-05-14T03:44:52.103Z,81.20
2017-05-14T03:47:19.870Z,81.00
2017-05-14T03:49:47.244Z,80.70
2017-05-14T03:52:14.256Z,80.60
2017-05-14T03:54:41.242Z,80.20
2017-05-14T03:57:08.278Z,80.60
2017-05-14T03:59:35.282Z,80.80
2017-05-14T04:02:02.729Z,80.50
2017-05-14T04:04:29.779Z,81.60
2017-05-14T04:06:56.794Z,82.30
2017-05-14T04:09:23.847Z,81.70
2017-05-14T04:11:50.940Z,81.90
2017-05-14T04:14:18.405Z,81.40
2017-05-14T04:16:46.177Z,81.40
2017-05-14T04:19:13.231Z,82.30
2017-05-14T04:21:40.285Z,81.90
2017-05-14T04:24:07.343Z,81.70
2017-05-14T04:26:34.756Z,81.50
2017-05-14T04:29:01.775Z,81.60
2017-05-14T04:31:28.837Z,81.40
2017-05-14T04:34:02.872Z,81.70
2017-05-14T04:36:29.887Z,81.20
2017-05-14T04:38:57.378Z,81.10
2017-05-14T04:41:24.415Z,81.30
2017-05-14T04:43:51.438Z,81.60
2017-05-14T04:46:18.456Z,80.40
2017-05-14T04:48:45.561Z,80.70
2017-05-14T04:51:13.034Z,81.50
2017-05-14T04:53:40.071Z,81.20
2017-05-14T04:56:07.083Z,80.60
2017-05-14T04:58:34.128Z,80.40
2017-05-14T05:01:01.193Z,80.70
2017-05-14T05:03:28.575Z,80.30
2017-05-14T05:05:55.595Z,80.90
2017-05-14T05:08:22.643Z,81.10
2017-05-14T05:10:49.649Z,80.60
2017-05-14T05:13:24.348Z,81.50
2017-05-14T05:15:52.404Z,81.20
2017-05-14T05:18:20.204Z,81.70
2017-05-14T05:20:47.956Z,81.50
2017-05-14T05:23:15.057Z,81.10
2017-05-14T05:25:42.093Z,80.10
2017-05-14T05:28:09.472Z,81.60
2017-05-14T05:30:36.496Z,81.40
2017-05-14T05:33:03.531Z,80.90
2017-05-14T05:35:30.629Z,80.50
2017-05-14T05:37:57.730Z,80.60
2017-05-14T05:40:25.113Z,81.30
2017-05-14T05:42:52.167Z,82.30
2017-05-14T05:45:19.220Z,81.90
2017-05-14T05:47:46.360Z,83.20
2017-05-14T05:50:13.402Z,83.10
2017-05-14T05:52:40.463Z,83.00
2017-05-14T05:55:07.916Z,83.40
2017-05-14T05:57:34.960Z,83.30
2017-05-14T06:00:02.058Z,83.00
2017-05-14T06:02:29.827Z,84.10
2017-05-14T06:04:57.661Z,83.80
2017-05-14T06:07:25.104Z,83.60
2017-05-14T06:09:52.115Z,82.60
2017-05-14T06:12:19.156Z,81.60
2017-05-14T06:14:46.173Z,82.30
2017-05-14T06:17:13.932Z,82.00
2017-05-14T06:19:41.389Z,81.70
2017-05-14T06:22:08.392Z,81.50
2017-05-14T06:24:35.484Z,80.60
2017-05-14T06:27:02.596Z,77.90
2017-05-14T06:29:29.625Z,78.60
2017-05-14T06:31:57.030Z,79.20
2017-05-14T06:34:24.082Z,79.10
2017-05-14T06:36:51.885Z,77.50
2017-05-14T06:39:18.928Z,78.80
2017-05-14T06:41:45.984Z,78.00
2017-05-14T06:44:13.396Z,78.20
2017-05-14T06:46:40.408Z,78.80
2017-05-14T06:49:07.435Z,77.90
2017-05-14T06:51:34.497Z,78.50
2017-05-14T06:54:01.490Z,77.00
2017-05-14T06:56:28.525Z,75.50
2017-05-14T06:58:55.589Z,76.70
2017-05-14T07:01:22.953Z,77.40
2017-05-14T07:03:50.720Z,78.50
2017-05-14T07:06:17.786Z,76.90
2017-05-14T07:08:44.809Z,78.00
2017-05-14T07:11:12.589Z,78.60
2017-05-14T07:13:39.982Z,79.40
2017-05-14T07:16:07.009Z,79.60
2017-05-14T07:18:34.028Z,78.60
2017-05-14T07:21:01.805Z,77.90
2017-05-14T07:23:29.604Z,77.70
2017-05-14T07:25:57.182Z,78.60
2017-05-14T07:28:24.203Z,78.30
2017-05-14T07:30:51.240Z,78.20
2017-05-14T07:33:18.283Z,77.80
2017-05-14T07:35:45.343Z,78.30
2017-05-14T07:38:12.747Z,79.80
2017-05-14T07:40:39.815Z,77.80
2017-05-14T07:43:07.561Z,77.30
2017-05-14T07:45:34.607Z,76.50
2017-05-14T07:48:01.634Z,78.20
2017-05-14T07:50:29.009Z,77.00
2017-05-14T07:52:56.040Z,76.40
2017-05-14T07:55:23.856Z,76.10
2017-05-14T07:57:51.032Z,76.00
2017-05-14T08:00:18.227Z,74.90
2017-05-14T08:02:45.674Z,74.80
2017-05-14T08:05:12.706Z,73.70
2017-05-14T08:07:39.769Z,74.50
2017-05-14T08:10:06.811Z,72.70
2017-05-14T08:12:33.854Z,73.30
2017-05-14T08:15:01.342Z,72.50
2017-05-14T08:17:29.125Z,72.70
2017-05-14T08:19:56.159Z,71.90
2017-05-14T08:22:23.928Z,69.60
2017-05-14T08:24:50.979Z,67.40
2017-05-14T08:27:19.143Z,68.70
2017-05-14T08:29:46.182Z,69.60
2017-05-14T08:32:13.968Z,69.60
2017-05-14T08:34:41.022Z,69.60
2017-05-14T08:37:08.040Z,68.70
2017-05-14T08:39:35.400Z,70.90
2017-05-14T08:42:03.196Z,70.60
2017-05-14T08:44:30.253Z,70.10
2017-05-14T08:46:57.287Z,69.80
2017-05-14T08:49:24.330Z,70.10
2017-05-14T08:51:51.424Z,69.60
2017-05-14T08:54:19.300Z,68.30
2017-05-14T08:56:46.560Z,69.10
2017-05-14T08:59:14.355Z,68.30
2017-05-14T09:01:41.435Z,68.80
2017-05-14T09:04:08.477Z,68.10
2017-05-14T09:06:35.876Z,68.90
2017-05-14T09:09:03.706Z,68.00
2017-05-14T09:11:30.737Z,66.90
2017-05-14T09:13:57.782Z,67.00
2017-05-14T09:16:24.819Z,67.60
2017-05-14T09:18:52.184Z,66.60
2017-05-14T09:21:19.212Z,68.70
2017-05-14T09:23:46.242Z,68.60
2017-05-14T09:26:13.317Z,69.20
2017-05-14T09:28:40.337Z,69.40
2017-05-14T09:31:07.375Z,69.70
2017-05-14T09:33:34.432Z,70.30
2017-05-14T09:36:01.797Z,70.10
2017-05-14T09:38:28.843Z,70.00
2017-05-14T09:40:55.878Z,69.60
2017-05-14T09:43:22.954Z,68.40
2017-05-14T09:45:49.989Z,68.00
2017-05-14T09:48:17.496Z,66.10
2017-05-14T09:50:45.277Z,66.70
2017-05-14T09:53:12.331Z,65.20
2017-05-14T09:55:39.372Z,67.30
2017-05-14T09:58:06.381Z,65.10
2017-05-14T10:00:34.532Z,65.60
2017-05-14T10:03:01.580Z,66.30
2017-05-14T10:05:28.566Z,66.60
2017-05-14T10:07:55.664Z,68.40
2017-05-14T10:10:22.720Z,68.30
2017-05-14T10:12:50.091Z,68.40
2017-05-14T10:15:17.133Z,69.30
2017-05-14T10:17:44.900Z,70.00
2017-05-14T10:20:12.697Z,68.20
2017-05-14T10:22:39.738Z,68.10
2017-05-14T10:25:07.240Z,67.50
2017-05-14T10:27:34.269Z,66.30
2017-05-14T10:30:01.325Z,60.60
2017-05-14T10:32:28.400Z,62.30
2017-05-14T10:34:55.502Z,60.30
2017-05-14T10:37:22.976Z,63.60
2017-05-14T10:39:50.277Z,63.20
2017-05-14T10:42:17.325Z,60.90
2017-05-14T10:44:44.421Z,61.10
2017-05-14T10:47:11.483Z,59.60
2017-05-14T10:49:38.857Z,58.50
2017-05-14T10:52:05.936Z,57.80
2017-05-14T10:54:32.953Z,56.90
2017-05-14T10:57:00.002Z,55.30
2017-05-14T10:59:27.056Z,55.90
2017-05-14T11:01:54.477Z,55.00
2017-05-14T11:04:22.240Z,55.70
2017-05-14T11:06:49.979Z,57.00
2017-05-14T11:09:17.028Z,57.10
2017-05-14T11:11:44.072Z,57.80
2017-05-14T11:14:11.544Z,56.80
2017-05-14T11:16:38.562Z,54.40
2017-05-14T11:19:05.593Z,52.80
2017-05-14T11:21:32.644Z,53.90
2017-05-14T11:23:59.630Z,54.00
2017-05-14T11:26:27.061Z,52.80
2017-05-14T11:28:54.100Z,53.40
2017-05-14T11:31:21.132Z,53.80
2017-05-14T11:33:48.201Z,52.50
2017-05-14T11:36:15.248Z,50.70
2017-05-14T11:38:42.708Z,49.80
2017-05-14T11:41:09.768Z,50.60
2017-05-14T11:43:37.520Z,49.80
2017-05-14T11:46:04.574Z,51.00
2017-05-14T11:48:31.629Z,49.70
2017-05-14T11:50:58.682Z,49.20
2017-05-14T11:53:26.234Z,48.50
2017-05-14T11:55:53.254Z,48.90
2017-05-14T11:58:20.268Z,49.10
2017-05-14T12:00:47.413Z,49.50
2017-05-14T12:03:14.440Z,48.10
2017-05-14T12:05:41.843Z,48.60
2017-05-14T12:08:08.891Z,48.30
2017-05-14T12:10:36.004Z,47.50
2017-05-14T12:13:03.852Z,45.50
2017-05-14T12:15:30.873Z,45.60
2017-05-14T12:17:59.124Z,46.50
2017-05-14T12:20:26.180Z,45.50
2017-05-14T12:22:53.223Z,45.30
2017-05-14T12:25:21.022Z,44.80
2017-05-14T12:27:48.097Z,44.10
2017-05-14T12:30:15.470Z,45.60
2017-05-14T12:32:42.522Z,43.30
2017-05-14T12:35:10.300Z,42.80
2017-05-14T12:37:38.081Z,42.30
2017-05-14T12:40:05.122Z,42.20
2017-05-14T12:42:32.528Z,41.70
2017-05-14T12:44:59.578Z,41.30
2017-05-14T12:47:26.632Z,41.60
2017-05-14T12:49:54.402Z,42.30
2017-05-14T12:52:22.203Z,43.10
2017-05-14T12:54:49.775Z,43.40
2017-05-14T12:57:16.807Z,41.20
2017-05-14T12:59:43.843Z,41.80
2017-05-14T13:02:10.951Z,42.20
2017-05-14T13:04:38.742Z,43.40
2017-05-14T13:07:06.150Z,43.00
2017-05-14T13:09:33.220Z,44.20
2017-05-14T13:12:08.380Z,43.40
2017-05-14T13:14:35.444Z,41.80
2017-05-14T13:17:02.483Z,44.10
2017-05-14T13:19:29.521Z,42.50
2017-05-14T13:21:57.241Z,43.50
2017-05-14T13:24:24.609Z,42.70
2017-05-14T13:26:52.374Z,42.80
2017-05-14T13:29:19.415Z,44.00
2017-05-14T13:31:46.477Z,43.60
2017-05-14T13:34:13.516Z,43.70
2017-05-14T13:36:40.955Z,43.20
2017-05-14T13:39:07.975Z,41.50
2017-05-14T13:41:34.980Z,41.40
2017-05-14T13:44:02.014Z,38.70
2017-05-14T13:46:30.028Z,39.40
2017-05-14T13:48:57.406Z,39.00
2017-05-14T13:51:25.156Z,37.00
2017-05-14T13:53:52.199Z,37.40
2017-05-14T13:56:19.235Z,37.80
2017-05-14T13:58:46.286Z,37.60
2017-05-14T14:01:13.742Z,38.10
2017-05-14T14:03:40.759Z,38.10
2017-05-14T14:06:07.790Z,37.70
2017-05-14T14:08:34.838Z,37.00
2017-05-14T14:11:01.916Z,36.90
2017-05-14T14:13:29.296Z,36.00
2017-05-14T14:15:56.293Z,36.10
2017-05-14T14:18:23.371Z,35.50
2017-05-14T14:20:51.172Z,34.40
2017-05-14T14:23:25.036Z,32.10
2017-05-14T14:25:52.508Z,32.80
2017-05-14T14:28:20.316Z,33.50
2017-05-14T14:30:47.344Z,32.80
2017-05-14T14:33:14.381Z,33.70
2017-05-14T14:35:42.173Z,32.00
2017-05-14T14:38:09.570Z,32.20
2017-05-14T14:40:36.570Z,31.90
2017-05-14T14:43:03.576Z,32.10
2017-05-14T14:45:31.387Z,32.10
2017-05-14T14:47:58.416Z,32.30
2017-05-14T14:50:25.452Z,30.90
2017-05-14T14:52:52.491Z,29.50
2017-05-14T14:55:19.818Z,29.70
2017-05-14T14:57:46.832Z,29.00
2017-05-14T15:00:13.857Z,29.00
2017-05-14T15:02:40.927Z,27.60
2017-05-14T15:05:07.959Z,26.50
2017-05-14T15:07:35.332Z,26.20
2017-05-14T15:10:02.362Z,27.10
2017-05-14T15:12:29.397Z,27.40
2017-05-14T15:14:56.478Z,26.90
2017-05-14T15:17:23.529Z,26.80
2017-05-14T15:19:51.312Z,24.40
2017-05-14T15:22:18.727Z,22.20
2017-05-14T15:24:45.720Z,20.30
2017-05-14T15:27:12.774Z,19.70
2017-05-14T15:29:39.844Z,19.90
2017-05-14T15:32:06.880Z,20.20
2017-05-14T15:34:34.270Z,18.90
2017-05-14T15:37:02.080Z,18.20
2017-05-14T15:39:29.118Z,18.80
2017-05-14T15:41:56.208Z,20.10
2017-05-14T15:44:23.232Z,22.60
2017-05-14T15:46:50.613Z,23.00
2017-05-14T15:49:18.471Z,23.00
2017-05-14T15:51:45.512Z,21.60
2017-05-14T15:54:12.597Z,21.20
2017-05-14T15:56:40.378Z,21.80
2017-05-14T15:59:07.791Z,21.40
2017-05-14T16:01:34.817Z,20.40
2017-05-14T16:04:01.862Z,20.60
2017-05-14T16:06:28.863Z,20.90
2017-05-14T16:08:55.881Z,19.60
2017-05-14T16:11:23.189Z,18.80
2017-05-14T16:13:50.217Z,18.90
2017-05-14T16:16:17.272Z,19.70
2017-05-14T16:18:44.339Z,19.70
2017-05-14T16:21:11.394Z,20.30
2017-05-14T16:23:38.858Z,18.80
2017-05-14T16:26:06.640Z,19.40
2017-05-14T16:28:34.407Z,19.90
2017-05-14T16:31:01.479Z,20.00
2017-05-14T16:33:28.573Z,19.60
2017-05-14T16:35:56.044Z,19.20
2017-05-14T16:38:24.230Z,20.60
2017-05-14T16:40:51.359Z,20.50
2017-05-14T16:43:18.569Z,21.20
2017-05-14T16:45:45.607Z,20.80
2017-05-14T16:48:13.087Z,19.00
2017-05-14T16:50:40.248Z,19.70
2017-05-14T16:53:07.310Z,20.40
2017-05-14T16:55:34.425Z,21.50
2017-05-14T16:58:02.245Z,20.40
2017-05-14T17:00:29.644Z,20.90
2017-05-14T17:02:57.360Z,19.80
2017-05-14T17:05:24.469Z,20.40
2017-05-14T17:07:51.545Z,19.40
2017-05-14T17:10:18.593Z,19.10
2017-05-14T17:12:46.124Z,18.60
2017-05-14T17:15:13.181Z,18.60
2017-05-14T17:17:40.216Z,18.20
2017-05-14T17:20:07.980Z,17.40
2017-05-14T17:22:34.993Z,17.70
2017-05-14T17:25:02.478Z,19.50
2017-05-14T17:27:29.605Z,20.60
2017-05-14T17:29:57.463Z,20.80
2017-05-14T17:32:24.581Z,19.90
2017-05-14T17:34:51.624Z,20.30
2017-05-14T17:37:19.042Z,20.20
2017-05-14T17:39:46.364Z,20.10
2017-05-14T17:42:13.448Z,20.60
2017-05-14T17:44:40.577Z,20.40
2017-05-14T17:47:07.705Z,20.80
2017-05-14T17:49:35.990Z,21.90
2017-05-14T17:52:03.146Z,23.40
2017-05-14T17:54:30.247Z,23.70
2017-05-14T17:56:57.397Z,24.00
2017-05-14T17:59:24.549Z,25.30
2017-05-14T18:01:52.098Z,24.90
2017-05-14T18:04:19.159Z,24.90
2017-05-14T18:06:46.234Z,25.40
2017-05-14T18:09:14.021Z,27.30
2017-05-14T18:11:41.074Z,27.10
2017-05-14T18:14:08.500Z,27.50
2017-05-14T18:16:35.544Z,28.00
2017-05-14T18:19:03.308Z,29.40
2017-05-14T18:21:31.096Z,30.50
2017-05-14T18:23:58.100Z,30.80
2017-05-14T18:26:26.276Z,31.10
2017-05-14T18:28:54.002Z,31.30
2017-05-14T18:31:21.082Z,31.90
2017-05-14T18:33:48.539Z,32.60
2017-05-14T18:36:15.593Z,33.70
2017-05-14T18:38:42.740Z,33.60
2017-05-14T18:41:10.609Z,34.50
2017-05-14T18:43:37.673Z,36.00
2017-05-14T18:46:05.057Z,36.70
2017-05-14T18:48:32.137Z,37.70
2017-05-14T18:50:59.169Z,38.30
2017-05-14T18:53:26.200Z,38.30
2017-05-14T18:55:53.229Z,38.70
2017-05-14T18:58:20.729Z,39.30
2017-05-14T19:00:47.758Z,40.10
2017-05-14T19:03:14.820Z,40.80
2017-05-14T19:05:41.899Z,41.40
2017-05-14T19:08:09.679Z,41.50
2017-05-14T19:10:37.924Z,41.60
2017-05-14T19:13:05.004Z,41.70
2017-05-14T19:15:32.024Z,39.70
2017-05-14T19:17:59.094Z,42.80
2017-05-14T19:20:26.884Z,42.20
2017-05-14T19:22:54.302Z,42.30
2017-05-14T19:25:22.078Z,41.90
2017-05-14T19:27:49.060Z,42.10
2017-05-14T19:30:16.126Z,42.20
2017-05-14T19:32:43.149Z,42.70
2017-05-14T19:35:10.556Z,42.30
2017-05-14T19:37:38.323Z,42.60
2017-05-14T19:40:05.354Z,43.90
2017-05-14T19:42:32.431Z,45.40
2017-05-14T19:45:00.205Z,46.90
2017-05-14T19:47:27.641Z,47.80
2017-05-14T19:49:55.421Z,47.00
2017-05-14T19:52:23.191Z,47.80
2017-05-14T19:54:50.229Z,47.00
2017-05-14T19:57:19.751Z,47.10
2017-05-14T19:59:47.281Z,46.90
2017-05-14T20:02:14.281Z,47.60
2017-05-14T20:04:41.343Z,47.70
2017-05-14T20:07:08.393Z,49.30
2017-05-14T20:09:35.397Z,48.60
2017-05-14T20:12:03.546Z,49.70
2017-05-14T20:14:31.316Z,50.60
2017-05-14T20:16:58.327Z,49.60
2017-05-14T20:19:25.348Z,49.60
2017-05-14T20:21:52.336Z,49.70
2017-05-14T20:24:19.786Z,50.00
2017-05-14T20:26:46.855Z,49.60
2017-05-14T20:29:14.613Z,48.70
2017-05-14T20:31:41.627Z,49.60
2017-05-14T20:34:08.605Z,49.20
2017-05-14T20:36:36.171Z,49.70
2017-05-14T20:39:03.322Z,50.40
2017-05-14T20:41:30.317Z,50.60
2017-05-14T20:43:57.353Z,50.50
2017-05-14T20:46:24.356Z,51.40
2017-05-14T20:49:00.168Z,51.40
2017-05-14T20:51:27.164Z,52.00
2017-05-14T20:53:54.175Z,51.70
2017-05-14T20:56:21.259Z,51.40
2017-05-14T20:58:48.290Z,51.80
2017-05-14T21:01:15.795Z,52.10
2017-05-14T21:03:42.857Z,52.30
2017-05-14T21:06:09.857Z,51.60
2017-05-14T21:08:36.882Z,52.40
2017-05-14T21:11:03.914Z,56.60
2017-05-14T21:13:31.576Z,60.90
2017-05-14T21:15:58.613Z,64.50
2017-05-14T21:18:25.619Z,66.10
2017-05-14T21:20:59.685Z,68.20
2017-05-14T21:23:26.716Z,68.90
2017-05-14T21:25:54.033Z,68.00
2017-05-14T21:28:21.032Z,67.60
2017-05-14T21:30:49.453Z,67.60
2017-05-14T21:33:16.499Z,68.30
2017-05-14T21:35:43.527Z,68.80
2017-05-14T21:38:10.880Z,68.40
2017-05-14T21:40:37.895Z,69.50
2017-05-14T21:43:04.905Z,70.50
2017-05-14T21:45:31.935Z,71.40
2017-05-14T21:47:58.961Z,71.90
2017-05-14T21:50:26.319Z,72.30
2017-05-14T21:52:53.325Z,71.80
2017-05-14T21:55:21.034Z,73.70
2017-05-14T21:57:48.095Z,75.30
2017-05-14T22:00:15.144Z,75.80
2017-05-14T22:02:42.165Z,76.40
2017-05-14T22:05:09.550Z,77.60
2017-05-14T22:07:36.716Z,76.80
2017-05-14T22:10:03.724Z,76.10
2017-05-14T22:12:30.813Z,76.50
2017-05-14T22:14:58.575Z,74.80
2017-05-14T22:17:26.132Z,76.00
2017-05-14T22:19:53.143Z,76.40
2017-05-14T22:22:20.144Z,77.50
2017-05-14T22:24:47.377Z,76.20
2017-05-14T22:27:14.401Z,75.20
2017-05-14T22:29:41.796Z,75.90
2017-05-14T22:32:08.791Z,75.00
2017-05-14T22:34:35.797Z,74.60
2017-05-14T22:37:03.591Z,74.60
2017-05-14T22:39:30.588Z,73.40
2017-05-14T22:41:58.043Z,73.40
2017-05-14T22:44:25.060Z,75.30
2017-05-14T22:46:52.096Z,77.50
2017-05-14T22:49:19.136Z,77.80
2017-05-14T22:51:46.160Z,78.60
2017-05-14T22:54:13.568Z,79.10
2017-05-14T22:56:40.583Z,79.30
2017-05-14T22:59:07.614Z,77.20
2017-05-14T23:01:35.376Z,76.40
2017-05-14T23:04:02.380Z,76.50
2017-05-14T23:06:29.855Z,76.10
2017-05-14T23:08:56.853Z,76.40
2017-05-14T23:11:23.951Z,76.00
2017-05-14T23:13:50.967Z,76.20
2017-05-14T23:16:18.013Z,75.50
2017-05-14T23:18:45.599Z,75.50
2017-05-14T23:21:12.623Z,75.80
2017-05-14T23:23:39.644Z,75.80
2017-05-14T23:26:06.647Z,78.40
2017-05-14T23:28:33.663Z,77.30
2017-05-14T23:31:01.133Z,77.50
2017-05-14T23:33:28.134Z,76.70
2017-05-14T23:35:55.874Z,75.80
2017-05-14T23:38:22.895Z,76.40
2017-05-14T23:40:49.902Z,76.40
2017-05-14T23:43:17.332Z,76.90
2017-05-14T23:45:45.092Z,75.60
2017-05-14T23:48:12.868Z,76.00
2017-05-14T23:50:39.913Z,76.10
2017-05-14T23:53:06.926Z,76.10
2017-05-14T23:55:34.381Z,75.90
2017-05-14T23:58:01.444Z,76.10
